Hoard, Wisconsin
Current Conditions -  °F | °C
As of 12:35 PM on Thursday 30 Oct 2014 (Local Time) from KMDZ Reporting Station
Overcast Overcast  
Wind Chill: 35°   Ceiling: 8000
Heat Index: 41°   Visibility: 10mi
Dew Point: 33°   Wind: 9mph
Humidity: 75%   Direction: 270°W
Pressure: 30.05"   Gusts: NA
Location:  44.9591°N, 90.4659°W
Report Text: KMDZ 301735Z AUTO 27008KT 10SM OVC080 05/01 A3005 RMK AO2 T00480007
Loading
Personal Weather Stations






























Interactive Weather Map
Tropical Storm Tracking
New forecast layout! Learn more

10-Day Weather Forecast

Advertisements
Track Severe Weather on mobile